Time;durP1;ratioP1;P1;durP2;ratioP2;P2;SDS_P1;SDS_P2;PMS_P1;PMS_P2;Temp;Humidity;BMP_temperature;BMP_pressure;BME280_temperature;BME280_humidity;BME280_pressure;Samples;Min_cycle;Max_cycle;Signal;HPM_P1;HPM_P2
2022/03/01 06:43:25;;;;;;;367.73;15.30;;;;;;;;;;5051619;23;20075;-87
2022/03/01 06:45:52;;;;;;;154.18;10.50;;;;;;;;;;4915336;29;20056;-87
2022/03/01 06:48:20;;;;;;;281.88;14.30;;;;;;;;;;4919624;29;20051;-87
2022/03/01 06:50:47;;;;;;;142.98;11.23;;;;;;;;;;4900754;29;20052;-88
2022/03/01 06:53:14;;;;;;;189.98;11.13;;;;;;;;;;4915313;29;20048;-87
2022/03/01 06:55:41;;;;;;;174.98;12.20;;;;;;;;;;4907919;29;20060;-88
2022/03/01 06:58:09;;;;;;;79.32;9.38;;;;;;;;;;4916621;29;20052;-88
2022/03/01 07:00:35;;;;;;;198.63;12.40;;;;;;;;;;4914489;29;20048;-88
2022/03/01 07:03:03;;;;;;;241.55;13.18;;;;;;;;;;4917423;29;20064;-88
2022/03/01 07:05:30;;;;;;;221.98;12.18;;;;;;;;;;4917154;29;20131;-88
2022/03/01 07:07:57;;;;;;;426.05;17.38;;;;;;;;;;4916759;29;20126;-88
2022/03/01 07:10:24;;;;;;;342.05;15.02;;;;;;;;;;4899001;29;20048;-88
2022/03/01 07:12:51;;;;;;;403.90;16.55;;;;;;;;;;4928896;29;20549;-88
2022/03/01 07:15:17;;;;;;;409.13;17.60;;;;;;;;;;4895568;29;20079;-88
2022/03/01 07:17:45;;;;;;;249.98;13.50;;;;;;;;;;4907278;29;20083;-86
2022/03/01 07:20:12;;;;;;;159.05;11.05;;;;;;;;;;4912360;29;20116;-87
2022/03/01 07:22:39;;;;;;;102.90;9.20;;;;;;;;;;4916531;29;20478;-89
2022/03/01 07:25:07;;;;;;;51.20;7.53;;;;;;;;;;4915679;29;20121;-86
2022/03/01 07:27:34;;;;;;;40.95;8.20;;;;;;;;;;4916070;29;20099;-88
2022/03/01 07:30:00;;;;;;;25.30;7.18;;;;;;;;;;4916058;29;20052;-88
2022/03/01 07:32:27;;;;;;;29.90;7.13;;;;;;;;;;4915075;29;20044;-87
2022/03/01 07:34:54;;;;;;;24.23;6.72;;;;;;;;;;4915756;29;20508;-86
2022/03/01 07:37:23;;;;;;;12.60;5.15;;;;;;;;;;4915385;29;20052;-88
2022/03/01 07:39:49;;;;;;;13.73;5.03;;;;;;;;;;4915635;29;20060;-88
2022/03/01 07:42:16;;;;;;;10.68;4.68;;;;;;;;;;4915426;29;20060;-86
2022/03/01 07:44:43;;;;;;;13.30;5.78;;;;;;;;;;4915347;29;20421;-86
2022/03/01 07:47:10;;;;;;;12.52;5.78;;;;;;;;;;4898266;29;20040;-85
2022/03/01 07:49:36;;;;;;;13.32;5.95;;;;;;;;;;4922800;29;20080;-86
2022/03/01 07:52:03;;;;;;;9.95;5.50;;;;;;;;;;4900692;29;20049;-88
2022/03/01 07:54:30;;;;;;;8.15;3.92;;;;;;;;;;4915585;29;20044;-86
2022/03/01 07:56:57;;;;;;;7.13;3.35;;;;;;;;;;4897456;29;20080;-87
2022/03/01 07:59:23;;;;;;;8.63;3.67;;;;;;;;;;4897797;29;20107;-86
2022/03/01 08:01:50;;;;;;;8.23;3.00;;;;;;;;;;4898643;29;20071;-86
2022/03/01 08:04:17;;;;;;;4.28;2.50;;;;;;;;;;4897671;29;20099;-85
2022/03/01 08:06:44;;;;;;;7.22;2.58;;;;;;;;;;4898236;29;20055;-85
2022/03/01 08:09:11;;;;;;;5.35;2.35;;;;;;;;;;4913017;29;20048;-86
2022/03/01 08:11:38;;;;;;;6.93;2.97;;;;;;;;;;4911105;29;20232;-86
2022/03/01 08:14:04;;;;;;;5.00;2.60;;;;;;;;;;4893307;29;20127;-86
2022/03/01 08:16:31;;;;;;;8.27;3.35;;;;;;;;;;4893188;29;20107;-87
2022/03/01 08:18:58;;;;;;;13.55;4.55;;;;;;;;;;4893652;29;22978;-87
2022/03/01 08:21:24;;;;;;;13.43;4.97;;;;;;;;;;4919202;29;20055;-88
2022/03/01 08:23:51;;;;;;;14.05;5.80;;;;;;;;;;4894248;29;20056;-88
2022/03/01 08:26:18;;;;;;;13.38;6.05;;;;;;;;;;4914191;29;20416;-88
2022/03/01 08:28:46;;;;;;;17.83;6.22;;;;;;;;;;4912720;29;20044;-88
2022/03/01 08:31:13;;;;;;;15.35;5.93;;;;;;;;;;4911253;29;20056;-87
2022/03/01 08:33:40;;;;;;;11.25;5.22;;;;;;;;;;4912789;29;20152;-87
2022/03/01 08:36:08;;;;;;;17.55;5.70;;;;;;;;;;4915499;29;20380;-86
2022/03/01 08:38:36;;;;;;;16.10;5.90;;;;;;;;;;4913896;29;20410;-87
2022/03/01 08:41:09;;;;;;;14.20;5.75;;;;;;;;;;4912970;29;20301;-90
2022/03/01 08:43:36;;;;;;;19.70;6.30;;;;;;;;;;4895190;29;20060;-86
2022/03/01 08:46:03;;;;;;;18.15;7.00;;;;;;;;;;4909853;29;20107;-85
2022/03/01 08:48:29;;;;;;;21.65;7.28;;;;;;;;;;4910529;29;20091;-86
2022/03/01 08:51:21;;;;;;;25.10;7.47;;;;;;;;;;4913668;29;20054;-86
2022/03/01 08:53:49;;;;;;;30.25;8.70;;;;;;;;;;4908935;29;20076;-86
2022/03/01 08:56:16;;;;;;;20.53;8.00;;;;;;;;;;4909553;29;20055;-86
2022/03/01 08:58:44;;;;;;;27.77;8.60;;;;;;;;;;4909860;29;20096;-87
2022/03/01 09:01:10;;;;;;;29.25;8.40;;;;;;;;;;4909311;29;20051;-85
2022/03/01 09:03:38;;;;;;;40.63;9.15;;;;;;;;;;4914606;29;20411;-84
2022/03/01 09:06:11;;;;;;;36.67;8.70;;;;;;;;;;4909793;29;20131;-85
2022/03/01 09:08:40;;;;;;;31.55;8.63;;;;;;;;;;4891944;29;20048;-88
2022/03/01 09:11:07;;;;;;;;;;;;;;;;;;4908096;29;20052;-87
2022/03/01 09:13:34;;;;;;;40.50;9.80;;;;;;;;;;4908195;29;19935;-88
2022/03/01 09:16:00;;;;;;;38.85;10.27;;;;;;;;;;4908851;29;20100;-87
2022/03/01 09:18:27;;;;;;;41.63;10.07;;;;;;;;;;4910008;29;20062;-87
2022/03/01 09:20:54;;;;;;;38.88;9.80;;;;;;;;;;4910336;29;20099;-87
2022/03/01 09:23:21;;;;;;;44.50;10.00;;;;;;;;;;4894825;29;20080;-86
2022/03/01 09:25:47;;;;;;;41.05;10.65;;;;;;;;;;4891486;29;20063;-87
2022/03/01 09:28:14;;;;;;;40.13;9.77;;;;;;;;;;4889947;29;20056;-87
2022/03/01 09:30:41;;;;;;;45.85;11.23;;;;;;;;;;4914253;29;20509;-86
2022/03/01 09:33:07;;;;;;;40.92;10.80;;;;;;;;;;4892458;29;20377;-86
2022/03/01 09:35:34;;;;;;;39.15;10.88;;;;;;;;;;4909775;29;20056;-87
2022/03/01 09:38:01;;;;;;;44.97;12.13;;;;;;;;;;4895373;29;20055;-87
2022/03/01 09:40:28;;;;;;;28.83;9.25;;;;;;;;;;4896820;29;20107;-88
2022/03/01 09:42:55;;;;;;;40.17;9.85;;;;;;;;;;4892375;29;20497;-89
2022/03/01 09:45:22;;;;;;;32.38;7.97;;;;;;;;;;4911280;29;20060;-88
2022/03/01 09:47:49;;;;;;;45.47;9.18;;;;;;;;;;4916406;29;20096;-88
2022/03/01 09:50:16;;;;;;;36.45;8.90;;;;;;;;;;4912895;29;20107;-89
2022/03/01 09:52:44;;;;;;;39.95;9.68;;;;;;;;;;4911160;29;20060;-89
2022/03/01 09:55:11;;;;;;;35.53;9.07;;;;;;;;;;4912330;29;20071;-88
2022/03/01 09:57:38;;;;;;;29.13;8.07;;;;;;;;;;4900506;29;20078;-85
2022/03/01 10:00:07;;;;;;;32.47;9.25;;;;;;;;;;4896105;29;20055;-86
2022/03/01 10:02:39;;;;;;;31.83;8.13;;;;;;;;;;4893020;29;20055;-88
2022/03/01 10:05:07;;;;;;;33.13;8.93;;;;;;;;;;4916253;29;20115;-84
2022/03/01 10:07:34;;;;;;;43.88;8.95;;;;;;;;;;4909837;29;20056;-86
2022/03/01 10:10:09;;;;;;;47.17;9.45;;;;;;;;;;4907388;29;20048;-85
2022/03/01 10:12:38;;;;;;;39.85;8.45;;;;;;;;;;4912055;29;20080;-85
2022/03/01 10:15:07;;;;;;;31.52;7.82;;;;;;;;;;4891125;29;20520;-84
2022/03/01 10:17:40;;;;;;;32.10;7.15;;;;;;;;;;4908543;29;20092;-84
2022/03/01 10:20:13;;;;;;;35.20;7.63;;;;;;;;;;4911012;29;20059;-85
2022/03/01 10:22:51;;;;;;;40.83;6.47;;;;;;;;;;4916380;29;20428;-85
2022/03/01 10:25:20;;;;;;;36.10;7.65;;;;;;;;;;4914750;29;20048;-85
2022/03/01 10:27:49;;;;;;;31.10;6.38;;;;;;;;;;4914511;29;20092;-85
2022/03/01 10:30:42;;;;;;;32.33;8.73;;;;;;;;;;4887304;29;20459;-85
2022/03/01 10:33:14;;;;;;;41.10;7.82;;;;;;;;;;4908651;29;20052;-85
2022/03/01 10:35:56;;;;;;;33.88;7.57;;;;;;;;;;4909999;29;20056;-85
2022/03/01 10:38:24;;;;;;;34.92;8.13;;;;;;;;;;4909987;29;20052;-85
2022/03/01 10:40:59;;;;;;;;;;;;;;;;;;4912416;29;20052;-86
2022/03/01 10:43:27;;;;;;;32.72;7.82;;;;;;;;;;4893937;29;20037;-85
2022/03/01 10:45:54;;;;;;;27.50;6.72;;;;;;;;;;4911972;29;20044;-86
2022/03/01 10:48:29;;;;;;;33.97;7.35;;;;;;;;;;4914396;29;20124;-84
2022/03/01 10:51:05;;;;;;;37.28;9.15;;;;;;;;;;4911454;29;20064;-85
2022/03/01 10:53:34;;;;;;;35.13;7.03;;;;;;;;;;4893537;29;20068;-86
2022/03/01 10:56:03;;;;;;;25.95;6.85;;;;;;;;;;4911415;29;20044;-87
2022/03/01 10:58:31;;;;;;;32.10;7.00;;;;;;;;;;4898910;29;20426;-87
2022/03/01 11:00:58;;;;;;;31.73;6.87;;;;;;;;;;4910526;29;20048;-88
2022/03/01 11:03:25;;;;;;;22.48;6.18;;;;;;;;;;4916128;29;20074;-88
2022/03/01 11:05:54;;;;;;;27.92;6.82;;;;;;;;;;4913618;29;20464;-87
2022/03/01 11:08:38;;;;;;;33.95;7.28;;;;;;;;;;4906127;29;20037;-86
2022/03/01 11:11:09;;;;;;;37.22;7.15;;;;;;;;;;4908255;29;20595;-86
2022/03/01 11:13:39;;;;;;;28.98;7.38;;;;;;;;;;4915257;29;20054;-87
2022/03/01 11:16:21;;;;;;;38.67;7.50;;;;;;;;;;4894109;29;20108;-86
2022/03/01 11:18:54;;;;;;;28.83;7.53;;;;;;;;;;4913173;29;20052;-87
2022/03/01 11:21:22;;;;;;;33.85;6.97;;;;;;;;;;4916066;29;20124;-88
2022/03/01 11:23:53;;;;;;;38.38;7.60;;;;;;;;;;4912718;29;20527;-89
2022/03/01 11:26:21;;;;;;;35.90;6.93;;;;;;;;;;4911220;29;20051;-89
2022/03/01 11:28:57;;;;;;;36.40;6.35;;;;;;;;;;4909431;29;20048;-86
2022/03/01 11:31:28;;;;;;;29.48;6.05;;;;;;;;;;4910602;29;20107;-87
2022/03/01 11:34:02;;;;;;;34.33;7.13;;;;;;;;;;4915276;29;20051;-86
2022/03/01 11:36:31;;;;;;;34.88;7.07;;;;;;;;;;4907127;29;20128;-86
2022/03/01 11:39:31;;;;;;;35.80;7.43;;;;;;;;;;4910859;29;20100;-86
2022/03/01 11:42:05;;;;;;;33.20;6.28;;;;;;;;;;4891589;29;20060;-88
2022/03/01 11:44:37;;;;;;;30.40;5.15;;;;;;;;;;4889145;29;20179;-86
2022/03/01 11:47:09;;;;;;;24.52;5.70;;;;;;;;;;4890815;29;20555;-87
2022/03/01 11:49:39;;;;;;;30.40;6.45;;;;;;;;;;4877288;29;20466;-88
2022/03/01 11:52:20;;;;;;;31.50;6.72;;;;;;;;;;4893416;29;20497;-88
2022/03/01 11:54:48;;;;;;;23.33;6.65;;;;;;;;;;4875603;29;20108;-87
2022/03/01 11:57:15;;;;;;;29.90;5.13;;;;;;;;;;4892442;29;20063;-87
2022/03/01 11:59:42;;;;;;;35.65;6.53;;;;;;;;;;4891941;29;20057;-86
2022/03/01 12:02:17;;;;;;;25.48;5.80;;;;;;;;;;4890835;29;20044;-85
2022/03/01 12:04:48;;;;;;;30.83;6.78;;;;;;;;;;4889049;29;20056;-85
2022/03/01 12:07:22;;;;;;;24.20;5.80;;;;;;;;;;4890261;29;20049;-85
2022/03/01 12:09:58;;;;;;;27.63;5.93;;;;;;;;;;4891776;29;20100;-86
2022/03/01 12:12:37;;;;;;;21.63;4.57;;;;;;;;;;4874054;29;20080;-87
2022/03/01 12:15:06;;;;;;;29.70;5.63;;;;;;;;;;4889597;29;20052;-86
2022/03/01 12:17:48;;;;;;;26.58;6.13;;;;;;;;;;4890472;29;20055;-87
2022/03/01 12:20:21;;;;;;;26.35;5.78;;;;;;;;;;4875024;29;20075;-84
2022/03/01 12:22:50;;;;;;;26.83;5.80;;;;;;;;;;4891126;29;20053;-87
2022/03/01 12:25:17;;;;;;;27.40;5.90;;;;;;;;;;4873370;29;20056;-86
2022/03/01 12:27:43;;;;;;;26.67;5.18;;;;;;;;;;4891858;29;20131;-85
2022/03/01 12:30:11;;;;;;;21.90;4.45;;;;;;;;;;4874533;29;20591;-85
2022/03/01 12:32:39;;;;;;;26.83;5.10;;;;;;;;;;4890828;29;20588;-85
2022/03/01 12:35:06;;;;;;;28.90;5.47;;;;;;;;;;4890688;29;20541;-84
2022/03/01 12:37:32;;;;;;;24.70;5.88;;;;;;;;;;4890988;29;20600;-85
2022/03/01 12:39:59;;;;;;;28.40;6.32;;;;;;;;;;4890701;29;20115;-86
2022/03/01 12:42:29;;;;;;;20.75;5.88;;;;;;;;;;4898028;29;20052;-85
2022/03/01 12:44:56;;;;;;;21.80;5.65;;;;;;;;;;4909244;29;20060;-85
2022/03/01 12:47:22;;;;;;;21.65;6.03;;;;;;;;;;4908689;29;20052;-85
2022/03/01 12:49:49;;;;;;;22.48;6.07;;;;;;;;;;4892035;29;20056;-85
2022/03/01 12:52:20;;;;;;;26.65;6.15;;;;;;;;;;4909559;29;20534;-85
2022/03/01 12:54:51;;;;;;;22.50;6.00;;;;;;;;;;4880288;29;20429;-85
2022/03/01 12:57:17;;;;;;;28.42;6.35;;;;;;;;;;4909881;29;20462;-86
2022/03/01 12:59:46;;;;;;;19.55;5.53;;;;;;;;;;4909805;29;20440;-86
2022/03/01 13:02:16;;;;;;;23.67;5.15;;;;;;;;;;4909138;29;20079;-85
2022/03/01 13:04:49;;;;;;;23.02;5.90;;;;;;;;;;4909487;29;20143;-86
2022/03/01 13:07:16;;;;;;;26.70;7.05;;;;;;;;;;4909463;29;20044;-86
2022/03/01 13:09:43;;;;;;;20.48;5.65;;;;;;;;;;4908779;29;20055;-87
2022/03/01 13:12:10;;;;;;;23.42;5.70;;;;;;;;;;4909568;29;20051;-86
2022/03/01 13:14:37;;;;;;;17.73;5.45;;;;;;;;;;4909072;29;20054;-86
2022/03/01 13:17:05;;;;;;;19.67;4.63;;;;;;;;;;4905944;29;20052;-86
2022/03/01 13:19:35;;;;;;;21.27;4.72;;;;;;;;;;4909109;29;20047;-87
2022/03/01 13:22:10;;;;;;;20.10;5.28;;;;;;;;;;4908305;29;20077;-87
2022/03/01 13:24:51;;;;;;;19.75;5.45;;;;;;;;;;4908366;29;20144;-86
2022/03/01 13:27:20;;;;;;;20.30;5.90;;;;;;;;;;4912803;29;20054;-87
2022/03/01 13:29:48;;;;;;;20.75;5.10;;;;;;;;;;4909043;29;20103;-87
2022/03/01 13:32:19;;;;;;;21.52;5.70;;;;;;;;;;4891754;29;20414;-85
2022/03/01 13:34:51;;;;;;;19.92;4.70;;;;;;;;;;4891978;29;20056;-84
2022/03/01 13:37:24;;;;;;;17.95;4.97;;;;;;;;;;4889950;29;20048;-85
2022/03/01 13:39:53;;;;;;;14.75;4.60;;;;;;;;;;4908593;29;20513;-85
2022/03/01 13:42:21;;;;;;;20.33;5.03;;;;;;;;;;4910041;29;20067;-85
2022/03/01 13:44:51;;;;;;;20.77;5.05;;;;;;;;;;4908240;29;20406;-85
2022/03/01 13:47:34;;;;;;;17.63;4.25;;;;;;;;;;4908059;29;20044;-85
2022/03/01 13:50:01;;;;;;;13.77;4.20;;;;;;;;;;4908640;29;20059;-85
2022/03/01 13:52:29;;;;;;;13.55;4.00;;;;;;;;;;4908390;29;20052;-85
2022/03/01 13:54:59;;;;;;;13.15;4.15;;;;;;;;;;4911782;29;20043;-85
2022/03/01 13:57:33;;;;;;;18.10;4.00;;;;;;;;;;4912696;29;20123;-85
2022/03/01 14:00:31;;;;;;;14.02;4.43;;;;;;;;;;4916437;29;20052;-86
2022/03/01 14:03:06;;;;;;;11.57;3.78;;;;;;;;;;4891278;29;20051;-86
2022/03/01 14:05:33;;;;;;;14.75;4.10;;;;;;;;;;4912270;29;20576;-85
2022/03/01 14:08:07;;;;;;;16.42;3.90;;;;;;;;;;4911994;29;20105;-85
2022/03/01 14:10:41;;;;;;;13.18;3.45;;;;;;;;;;4911373;29;20432;-85
2022/03/01 14:13:14;;;;;;;16.35;4.07;;;;;;;;;;4911915;29;20413;-84
2022/03/01 14:15:44;;;;;;;12.63;3.05;;;;;;;;;;4892545;29;20091;-85
2022/03/01 14:18:13;;;;;;;8.23;3.22;;;;;;;;;;4912462;29;20052;-85
2022/03/01 14:20:41;;;;;;;8.82;3.15;;;;;;;;;;4892624;29;20067;-85
2022/03/01 14:23:09;;;;;;;13.35;3.97;;;;;;;;;;4911826;29;20572;-85
2022/03/01 14:25:35;;;;;;;11.43;3.80;;;;;;;;;;4912169;29;20453;-85
2022/03/01 14:28:04;;;;;;;10.20;3.10;;;;;;;;;;4906217;29;20048;-86
2022/03/01 14:30:31;;;;;;;;;;;;;;;;;;4909355;29;20048;-85
2022/03/01 14:33:00;;;;;;;12.80;3.40;;;;;;;;;;4911777;29;19923;-84
2022/03/01 14:35:28;;;;;;;;;;;;;;;;;;4894861;29;20044;-85
2022/03/01 14:37:55;;;;;;;17.70;4.33;;;;;;;;;;4910385;29;19962;-86
2022/03/01 14:40:23;;;;;;;14.32;3.38;;;;;;;;;;4906613;29;20048;-86
2022/03/01 14:42:51;;;;;;;14.15;3.88;;;;;;;;;;4908244;29;20055;-86
2022/03/01 14:45:18;;;;;;;14.00;3.42;;;;;;;;;;4909656;29;20048;-85
2022/03/01 14:47:45;;;;;;;22.55;3.90;;;;;;;;;;4891160;29;20052;-86
2022/03/01 14:50:12;;;;;;;15.48;3.03;;;;;;;;;;4912114;29;20048;-86
2022/03/01 14:52:38;;;;;;;9.70;3.33;;;;;;;;;;4898007;29;20070;-87
2022/03/01 14:55:05;;;;;;;15.38;5.72;;;;;;;;;;4894454;29;20386;-85
2022/03/01 14:57:32;;;;;;;15.75;3.75;;;;;;;;;;4912466;29;20059;-86
2022/03/01 14:59:59;;;;;;;15.77;3.65;;;;;;;;;;4897689;29;20066;-87
2022/03/01 15:02:25;;;;;;;18.98;4.00;;;;;;;;;;4911523;29;20477;-86
2022/03/01 15:04:52;;;;;;;16.42;3.92;;;;;;;;;;4910636;29;20079;-86
2022/03/01 15:07:20;;;;;;;15.60;4.43;;;;;;;;;;4908948;29;20049;-86
2022/03/01 15:09:47;;;;;;;11.50;3.65;;;;;;;;;;4907046;29;20055;-85
2022/03/01 15:12:14;;;;;;;12.20;3.90;;;;;;;;;;4894118;29;20067;-84
2022/03/01 15:14:40;;;;;;;14.82;4.35;;;;;;;;;;4911138;29;20068;-85
2022/03/01 15:17:07;;;;;;;18.63;4.22;;;;;;;;;;4913914;29;20056;-85
2022/03/01 15:19:34;;;;;;;14.60;4.50;;;;;;;;;;4914783;29;20048;-85
2022/03/01 15:22:02;;;;;;;18.67;4.45;;;;;;;;;;4911607;29;20082;-86
2022/03/01 15:24:28;;;;;;;16.08;4.70;;;;;;;;;;4912638;29;20067;-90
2022/03/01 15:26:55;;;;;;;19.80;6.20;;;;;;;;;;4899241;29;20108;-89
2022/03/01 15:29:22;;;;;;;20.77;5.82;;;;;;;;;;4905004;29;20110;-90
2022/03/01 15:31:48;;;;;;;16.25;4.97;;;;;;;;;;4910185;29;20532;-86
2022/03/01 15:34:15;;;;;;;17.83;5.10;;;;;;;;;;4904581;29;20115;-86
2022/03/01 15:36:47;;;;;;;15.40;5.43;;;;;;;;;;4912163;29;20048;-88
2022/03/01 15:39:14;;;;;;;11.43;5.07;;;;;;;;;;4888297;29;20523;-88
2022/03/01 15:41:41;;;;;;;20.50;6.25;;;;;;;;;;4907271;29;20610;-87
2022/03/01 15:44:08;;;;;;;14.45;6.45;;;;;;;;;;4913772;29;20115;-86
2022/03/01 15:46:35;;;;;;;24.13;6.65;;;;;;;;;;4894235;29;20044;-86
2022/03/01 15:49:03;;;;;;;22.00;6.70;;;;;;;;;;4910386;29;20059;-88
2022/03/01 15:51:29;;;;;;;22.85;7.20;;;;;;;;;;4912249;29;20840;-89
2022/03/01 15:54:01;;;;;;;27.40;8.07;;;;;;;;;;4901969;29;20052;-86
2022/03/01 15:56:32;;;;;;;21.98;8.57;;;;;;;;;;4885180;29;20532;-87
2022/03/01 15:58:59;;;;;;;21.63;6.53;;;;;;;;;;4890449;29;20055;-90
2022/03/01 16:01:26;;;;;;;19.35;7.10;;;;;;;;;;4909240;29;20067;-87
2022/03/01 16:03:54;;;;;;;24.38;7.43;;;;;;;;;;4914992;29;20168;-87
2022/03/01 16:06:20;;;;;;;19.40;7.43;;;;;;;;;;4910227;29;20052;-86
2022/03/01 16:08:47;;;;;;;19.73;8.18;;;;;;;;;;4911717;29;20536;-89
2022/03/01 16:11:14;;;;;;;27.35;9.93;;;;;;;;;;4892302;29;20090;-89
2022/03/01 16:13:41;;;;;;;27.52;9.40;;;;;;;;;;4915335;29;20075;-89
2022/03/01 16:16:08;;;;;;;24.65;9.30;;;;;;;;;;4910402;29;20052;-89
2022/03/01 16:18:37;;;;;;;35.78;11.75;;;;;;;;;;4911737;29;20071;-88
2022/03/01 16:21:08;;;;;;;;;;;;;;;;;;4914305;29;20142;-88
2022/03/01 16:23:36;;;;;;;25.38;9.63;;;;;;;;;;4900554;29;20009;-88
2022/03/01 16:26:04;;;;;;;;;;;;;;;;;;4906089;29;20051;-86
2022/03/01 16:28:31;;;;;;;29.20;9.68;;;;;;;;;;4913291;29;20467;-87
2022/03/01 16:31:00;;;;;;;22.73;9.63;;;;;;;;;;4908724;29;20491;-85
2022/03/01 16:33:27;;;;;;;27.95;10.65;;;;;;;;;;4892370;29;20060;-84
2022/03/01 16:35:54;;;;;;;30.92;10.77;;;;;;;;;;4910250;29;20048;-86
2022/03/01 16:38:21;;;;;;;31.00;11.15;;;;;;;;;;4902148;29;20052;-86
2022/03/01 16:40:48;;;;;;;37.78;11.30;;;;;;;;;;4903623;29;20230;-86
2022/03/01 16:43:15;;;;;;;22.27;10.27;;;;;;;;;;4909672;29;20080;-85
2022/03/01 16:45:42;;;;;;;28.88;10.38;;;;;;;;;;4913803;29;20059;-85
2022/03/01 16:48:09;;;;;;;33.65;11.35;;;;;;;;;;4909971;29;20155;-85
2022/03/01 16:50:36;;;;;;;30.10;11.77;;;;;;;;;;4909639;29;20474;-86
2022/03/01 16:53:04;;;;;;;30.77;11.35;;;;;;;;;;4913047;29;20396;-86
2022/03/01 16:55:31;;;;;;;35.10;9.40;;;;;;;;;;4908312;29;20048;-86
2022/03/01 16:58:00;;;;;;;31.80;11.07;;;;;;;;;;4910602;29;20060;-87
2022/03/01 17:00:32;;;;;;;33.60;10.48;;;;;;;;;;4892613;29;20103;-85
2022/03/01 17:03:07;;;;;;;28.02;10.13;;;;;;;;;;4907498;29;20074;-84
2022/03/01 17:05:34;;;;;;;31.58;11.13;;;;;;;;;;4912660;29;20376;-85
2022/03/01 17:08:03;;;;;;;29.27;10.50;;;;;;;;;;4906862;29;20040;-85
2022/03/01 17:10:30;;;;;;;35.35;11.48;;;;;;;;;;4903989;29;20126;-86
2022/03/01 17:12:57;;;;;;;32.63;11.32;;;;;;;;;;4904774;29;20111;-86
2022/03/01 17:15:24;;;;;;;36.75;11.52;;;;;;;;;;4910164;29;20119;-89
2022/03/01 17:17:51;;;;;;;30.35;11.75;;;;;;;;;;4909772;29;20056;-86
2022/03/01 17:20:18;;;;;;;28.95;12.70;;;;;;;;;;4905596;29;20052;-85
2022/03/01 17:22:44;;;;;;;34.42;11.95;;;;;;;;;;4907565;29;20143;-88
2022/03/01 17:25:11;;;;;;;35.30;13.73;;;;;;;;;;4908904;29;20048;-90
2022/03/01 17:27:39;;;;;;;31.17;11.60;;;;;;;;;;4888905;29;20052;-88
2022/03/01 17:30:09;;;;;;;33.53;10.90;;;;;;;;;;4917067;29;20513;-87
2022/03/01 17:32:36;;;;;;;28.15;10.43;;;;;;;;;;4907526;29;20052;-87
2022/03/01 17:35:05;;;;;;;28.15;11.57;;;;;;;;;;4904616;29;20048;-86
2022/03/01 17:37:52;;;;;;;35.33;11.55;;;;;;;;;;4890675;29;20664;-85
2022/03/01 17:40:19;;;;;;;27.48;10.38;;;;;;;;;;4906857;29;20207;-86
2022/03/01 17:42:46;;;;;;;32.42;11.65;;;;;;;;;;4882816;29;20114;-86
2022/03/01 17:45:12;;;;;;;39.75;18.55;;;;;;;;;;4906806;29;20579;-86
2022/03/01 17:47:40;;;;;;;35.15;13.30;;;;;;;;;;4906923;29;20083;-85
2022/03/01 17:50:07;;;;;;;27.85;13.73;;;;;;;;;;4909030;29;20514;-84
2022/03/01 17:52:34;;;;;;;33.60;12.55;;;;;;;;;;4891051;29;20107;-88
2022/03/01 17:55:03;;;;;;;34.22;13.48;;;;;;;;;;4896782;29;20509;-87
2022/03/01 17:57:29;;;;;;;28.65;12.20;;;;;;;;;;4909669;29;20542;-88
2022/03/01 17:59:56;;;;;;;25.25;11.25;;;;;;;;;;4897925;29;20060;-90
2022/03/01 18:02:23;;;;;;;28.05;11.30;;;;;;;;;;4892661;29;20056;-90
2022/03/01 18:04:50;;;;;;;36.40;19.55;;;;;;;;;;4893747;29;20044;-89
2022/03/01 18:07:18;;;;;;;27.17;11.93;;;;;;;;;;4889397;29;20478;-88
2022/03/01 18:09:45;;;;;;;27.47;9.97;;;;;;;;;;4904648;29;20116;-87
2022/03/01 18:12:13;;;;;;;26.60;11.20;;;;;;;;;;4918602;29;20284;-88
2022/03/01 18:14:40;;;;;;;23.40;11.40;;;;;;;;;;4905857;29;20059;-88
2022/03/01 18:17:07;;;;;;;25.52;11.65;;;;;;;;;;4906109;29;20525;-88
2022/03/01 18:19:33;;;;;;;27.77;11.48;;;;;;;;;;4889223;29;20061;-87
2022/03/01 18:22:00;;;;;;;29.40;10.82;;;;;;;;;;4908861;29;20044;-89
2022/03/01 18:24:27;;;;;;;29.73;11.30;;;;;;;;;;4909814;29;20044;-89
2022/03/01 18:26:54;;;;;;;28.92;11.75;;;;;;;;;;4907024;29;20052;-90
2022/03/01 18:29:20;;;;;;;31.98;10.15;;;;;;;;;;4893387;29;20064;-88
2022/03/01 18:31:47;;;;;;;29.20;11.45;;;;;;;;;;4889672;29;20066;-88
2022/03/01 18:34:16;;;;;;;30.05;11.70;;;;;;;;;;4909348;29;20052;-86
2022/03/01 18:36:46;;;;;;;35.63;11.25;;;;;;;;;;4905590;29;20472;-86
2022/03/01 18:39:14;;;;;;;37.28;13.48;;;;;;;;;;4908004;29;20099;-87
2022/03/01 18:41:42;;;;;;;34.92;14.75;;;;;;;;;;4904327;29;20080;-84
2022/03/01 18:44:09;;;;;;;35.07;14.57;;;;;;;;;;4891431;29;20055;-86
2022/03/01 18:46:36;;;;;;;44.55;15.57;;;;;;;;;;4893125;29;20044;-87
2022/03/01 18:49:04;;;;;;;40.67;15.55;;;;;;;;;;4891958;29;20060;-86
2022/03/01 18:51:32;;;;;;;35.33;13.52;;;;;;;;;;4895887;29;20045;-87
2022/03/01 18:54:00;;;;;;;45.05;16.65;;;;;;;;;;4874167;29;20049;-88
2022/03/01 18:56:28;;;;;;;51.53;18.77;;;;;;;;;;4888174;29;20267;-87
2022/03/01 18:58:56;;;;;;;40.50;15.85;;;;;;;;;;4892459;29;20053;-87
2022/03/01 19:01:22;;;;;;;39.70;14.47;;;;;;;;;;4892449;29;20056;-88
2022/03/01 19:03:50;;;;;;;29.55;11.60;;;;;;;;;;4891095;29;20187;-87
2022/03/01 19:06:18;;;;;;;31.80;12.63;;;;;;;;;;4873539;29;20044;-85
2022/03/01 19:08:51;;;;;;;33.65;11.93;;;;;;;;;;4894635;29;20116;-88
2022/03/01 19:11:19;;;;;;;29.73;11.90;;;;;;;;;;4881900;29;20053;-86
2022/03/01 19:13:47;;;;;;;29.55;12.48;;;;;;;;;;4889525;29;20044;-82
2022/03/01 19:16:14;;;;;;;29.20;12.82;;;;;;;;;;4888545;29;20083;-83
2022/03/01 19:18:42;;;;;;;32.13;11.63;;;;;;;;;;4886549;29;20056;-83
2022/03/01 19:21:10;;;;;;;;;;;;;;;;;;4891213;29;20307;-82
2022/03/01 19:23:39;;;;;;;35.60;11.98;;;;;;;;;;4891260;29;19962;-82
2022/03/01 19:26:06;;;;;;;31.20;12.07;;;;;;;;;;4874668;29;20564;-83
2022/03/01 19:28:33;;;;;;;34.13;12.15;;;;;;;;;;4871994;29;20059;-83
2022/03/01 19:31:00;;;;;;;45.03;19.00;;;;;;;;;;4889639;29;20094;-83
2022/03/01 19:33:27;;;;;;;29.67;12.48;;;;;;;;;;4888294;29;20096;-82
2022/03/01 19:35:54;;;;;;;38.50;12.60;;;;;;;;;;4873028;29;20471;-83
2022/03/01 19:38:20;;;;;;;25.23;12.35;;;;;;;;;;4888719;29;20522;-82
2022/03/01 19:40:47;;;;;;;40.97;15.00;;;;;;;;;;4874785;29;20104;-81
2022/03/01 19:43:14;;;;;;;41.58;13.45;;;;;;;;;;4886501;29;20108;-82
2022/03/01 19:45:40;;;;;;;28.50;11.55;;;;;;;;;;4891618;29;20602;-81
2022/03/01 19:48:08;;;;;;;30.83;11.88;;;;;;;;;;4886566;29;20055;-82
2022/03/01 19:50:35;;;;;;;34.97;11.93;;;;;;;;;;4891446;29;20044;-83
2022/03/01 19:53:05;;;;;;;31.20;12.60;;;;;;;;;;4892702;29;20055;-83
2022/03/01 19:55:32;;;;;;;29.65;11.25;;;;;;;;;;4888496;29;20173;-82
2022/03/01 19:57:59;;;;;;;42.42;16.17;;;;;;;;;;4890978;29;20152;-81
2022/03/01 20:00:28;;;;;;;31.30;15.23;;;;;;;;;;4886447;29;20060;-82
2022/03/01 20:02:58;;;;;;;47.53;17.33;;;;;;;;;;4890116;29;20087;-83
2022/03/01 20:05:28;;;;;;;35.20;15.00;;;;;;;;;;4887983;29;20682;-83
2022/03/01 20:07:56;;;;;;;40.47;17.15;;;;;;;;;;4886478;29;20076;-82
2022/03/01 20:10:24;;;;;;;38.47;13.43;;;;;;;;;;4887752;29;20520;-82
2022/03/01 20:12:51;;;;;;;33.72;17.00;;;;;;;;;;4888928;29;20136;-81
2022/03/01 20:15:17;;;;;;;37.35;15.82;;;;;;;;;;4890888;29;20061;-83
2022/03/01 20:17:44;;;;;;;30.58;14.02;;;;;;;;;;4890714;29;20076;-83
2022/03/01 20:20:15;;;;;;;35.85;14.85;;;;;;;;;;4876186;29;20052;-83
2022/03/01 20:22:43;;;;;;;49.33;14.80;;;;;;;;;;4892059;29;20517;-83
2022/03/01 20:25:12;;;;;;;30.67;15.05;;;;;;;;;;4892299;29;20096;-81
2022/03/01 20:27:39;;;;;;;;;;;;;;;;;;4895168;29;20474;-83
2022/03/01 20:30:07;;;;;;;36.90;12.82;;;;;;;;;;4891154;29;19927;-82
2022/03/01 20:32:58;;;;;;;40.97;15.02;;;;;;;;;;4877059;29;20068;-83
2022/03/01 20:35:26;;;;;;;35.65;17.33;;;;;;;;;;4889625;29;20063;-83
2022/03/01 20:37:53;;;;;;;34.08;14.32;;;;;;;;;;4889408;29;20064;-84
2022/03/01 20:40:19;;;;;;;35.88;16.50;;;;;;;;;;4885672;29;20494;-84
2022/03/01 20:42:48;;;;;;;40.28;19.67;;;;;;;;;;4900754;29;20044;-84
2022/03/01 20:45:16;;;;;;;43.45;21.17;;;;;;;;;;4906198;29;20822;-83
2022/03/01 20:47:43;;;;;;;48.15;22.88;;;;;;;;;;4899509;29;20052;-83
2022/03/01 20:50:14;;;;;;;48.47;21.05;;;;;;;;;;4905086;29;20107;-85
2022/03/01 20:52:42;;;;;;;41.42;23.55;;;;;;;;;;4890595;29;20068;-82
2022/03/01 20:55:10;;;;;;;46.58;24.15;;;;;;;;;;4903996;29;20045;-83
2022/03/01 20:57:37;;;;;;;40.53;23.00;;;;;;;;;;4905788;29;20056;-83
2022/03/01 21:00:08;;;;;;;32.63;17.08;;;;;;;;;;4905754;29;20079;-83
2022/03/01 21:02:34;;;;;;;43.72;20.65;;;;;;;;;;4910633;29;20048;-84
2022/03/01 21:05:02;;;;;;;47.05;22.55;;;;;;;;;;4900664;29;20537;-83
2022/03/01 21:07:29;;;;;;;29.80;13.43;;;;;;;;;;4889989;29;20517;-82
2022/03/01 21:09:56;;;;;;;31.05;14.95;;;;;;;;;;4910601;29;20052;-82
2022/03/01 21:12:23;;;;;;;30.17;11.38;;;;;;;;;;4911849;29;20056;-82
2022/03/01 21:14:49;;;;;;;22.92;9.50;;;;;;;;;;4908239;29;20513;-81
2022/03/01 21:17:16;;;;;;;27.98;11.25;;;;;;;;;;4907517;29;20111;-82
2022/03/01 21:19:44;;;;;;;25.27;8.75;;;;;;;;;;4910330;29;20063;-81